Главная страница
METAR-TAF:

METAR-TAF

Аэропорты :

Мушёэн, Норвегия

широта: 65-48N, долгота: 013-08E, высота над уровнем моря: 70 м

Текущие метеонаблюдения

Эта сводка был подготовлена 13 часа и 3 минут назад, в 18:50 UTC
Ветер 3 Узел от западный
Температура 0°C
Влажность 80%
Давление 1015 hPa
Видимость 10 км и более
Отдельные облака на высоте 4000 фута
Рассеянная облачность на высоте 7000 фута

METAR: ENMS 161850Z 28003KT 9999 SCT040 BKN070 00/M03 Q1015 RMK WIND 412FT VRB02KT

Время: 08:53 (07:53 UTC)


TAF: отсутствует

Метеонаблюдения и прогнозы для более 4000 аэропортов (сводки METAR и TAF).

Имеющиеся станции представлены на карте желтыми и красными точками.

Чтобы увидеть название станции, наведите на нее мышь.

Затем щелкните, чтобы увидеть метеонаблюдения и метеопрогнозы.

Управление картой: чтобы увеличить масштаб, щелкните зеленые кнопки с черным крестиком; чтобы уменьшить масштаб, щелкните зеленую кнопку с тире; для просмотра соседних карт щелкайте зеленые стрелки.


METAR-TAF: